Terminal Aerodrome Forecast
Issued by NWS

Home | Current Version | Previous Version | Text Only | Print | Product List | Glossary On
Versions: 1 2 3 4 5 6 7 8 9 10 11 12 13 14 15
000
FTUS43 KFGF 271700
TAFDVL
TAF
KDVL 271720Z 2718/2818 18010KT P6SM SKC
     FM271900 18009KT P6SM BKN120
     FM280000 15015KT 1SM -SN OVC008
     FM281200 09009KT P6SM OVC015
      AMD LTD TO CLD VIS AND WIND=

USA.gov is the U.S. government's official web portal to all federal, state and local government web resources and services.